createdAt,value
2023-02-06T00:01:01.103Z,97985.44
2023-02-06T00:02:03.185Z,97981.09
2023-02-06T00:03:08.164Z,97991.28
2023-02-06T00:04:11.688Z,97989.53
2023-02-06T00:05:16.407Z,97991.25
2023-02-06T00:06:19.371Z,97991.25
2023-02-06T00:07:24.954Z,97992.09
2023-02-06T00:08:27.984Z,97990.44
2023-02-06T00:09:34.671Z,97992.97
2023-02-06T00:10:38.140Z,97995.50
2023-02-06T00:11:43.071Z,97998.09
2023-02-06T00:12:45.307Z,97999.75
2023-02-06T00:13:54.359Z,97993.78
2023-02-06T00:14:56.387Z,97989.53
2023-02-06T00:16:01.011Z,97998.94
2023-02-06T00:17:06.904Z,98001.56
2023-02-06T00:18:09.078Z,98000.72
2023-02-06T00:19:16.134Z,97994.81
2023-02-06T00:20:19.721Z,97997.31
2023-02-06T00:21:27.041Z,97996.44
2023-02-06T00:22:30.677Z,98007.50
2023-02-06T00:23:36.771Z,97999.06
2023-02-06T00:25:57.540Z,98007.56
2023-02-06T00:26:59.483Z,98007.63
2023-02-06T00:28:04.480Z,98012.78
2023-02-06T00:29:13.280Z,98008.50
2023-02-06T00:30:15.845Z,98008.50
2023-02-06T00:31:22.595Z,98010.16
2023-02-06T00:32:25.975Z,98015.28
2023-02-06T00:33:31.168Z,98010.16
2023-02-06T00:34:33.880Z,98013.56
2023-02-06T00:35:39.894Z,98009.25
2023-02-06T00:36:42.636Z,98010.06
2023-02-06T00:37:47.870Z,98010.06
2023-02-06T00:38:49.916Z,98010.06
2023-02-06T00:39:56.545Z,98005.81
2023-02-06T00:40:59.420Z,98004.91
2023-02-06T00:42:04.735Z,98004.06
2023-02-06T00:43:07.947Z,98004.03
2023-02-06T00:44:16.384Z,98007.41
2023-02-06T00:45:19.034Z,98003.19
2023-02-06T00:46:25.162Z,97996.44
2023-02-06T00:47:28.579Z,97998.91
2023-02-06T00:48:33.294Z,97999.75
2023-02-06T00:49:35.294Z,98004.00
2023-02-06T00:50:40.879Z,97998.84
2023-02-06T00:51:43.487Z,98003.13
2023-02-06T00:52:48.586Z,98011.59
2023-02-06T00:55:10.413Z,98010.06
2023-02-06T00:56:12.514Z,98002.41
2023-02-06T00:57:17.593Z,98001.50
2023-02-06T00:58:19.717Z,98006.66
2023-02-06T00:59:27.441Z,98001.56
2023-02-06T01:00:29.768Z,98004.91
2023-02-06T01:01:34.490Z,97998.09
2023-02-06T01:02:37.163Z,97996.34
2023-02-06T01:03:41.887Z,98001.44
2023-02-06T01:04:43.861Z,97992.03
2023-02-06T01:05:48.819Z,97996.22
2023-02-06T01:06:51.469Z,97994.53
2023-02-06T01:07:56.062Z,97990.28
2023-02-06T01:08:58.168Z,97992.72
2023-02-06T01:10:02.767Z,97989.38
2023-02-06T01:11:12.957Z,97994.53
2023-02-06T01:12:15.553Z,97980.81
2023-02-06T01:13:53.351Z,97985.06
2023-02-06T01:16:28.121Z,97987.50
2023-02-06T01:17:32.795Z,97987.50
2023-02-06T01:18:38.586Z,97988.34
2023-02-06T01:20:12.942Z,97985.81
2023-02-06T01:21:18.210Z,97983.22
2023-02-06T01:22:24.054Z,97982.34
2023-02-06T01:23:28.049Z,97978.91
2023-02-06T01:24:33.506Z,97984.94
2023-02-06T01:25:37.962Z,97984.06
2023-02-06T01:26:43.875Z,97980.56
2023-02-06T01:27:46.661Z,97984.78
2023-02-06T01:28:57.041Z,97985.59
2023-02-06T01:29:59.296Z,97982.25
2023-02-06T01:31:05.927Z,97981.38
2023-02-06T01:32:12.966Z,97986.44
2023-02-06T01:33:20.793Z,97989.06
2023-02-06T01:34:24.323Z,97983.94
2023-02-06T01:35:29.869Z,97991.53
2023-02-06T01:36:32.869Z,97987.34
2023-02-06T01:37:38.492Z,97982.31
2023-02-06T01:38:43.200Z,97986.53
2023-02-06T01:41:09.488Z,97984.81
2023-02-06T01:42:13.927Z,97980.56
2023-02-06T01:45:41.615Z,97977.16
2023-02-06T01:46:45.390Z,97976.41
2023-02-06T01:47:55.395Z,97975.53
2023-02-06T01:48:57.561Z,97977.19
2023-02-06T01:50:03.805Z,97977.13
2023-02-06T01:51:12.374Z,97977.13
2023-02-06T01:52:22.374Z,97973.69
2023-02-06T01:53:28.221Z,97970.25
2023-02-06T01:54:35.375Z,97972.78
2023-02-06T01:55:39.901Z,97962.56
2023-02-06T01:56:50.772Z,97968.47
2023-02-06T01:57:53.040Z,97971.94
2023-02-06T01:59:03.120Z,97974.44
2023-02-06T02:00:09.553Z,97971.97
2023-02-06T02:01:15.805Z,97969.38
2023-02-06T02:02:18.079Z,97966.81
2023-02-06T02:03:25.960Z,97969.31
2023-02-06T02:04:31.824Z,97966.72
2023-02-06T02:05:38.537Z,97972.72
2023-02-06T02:06:41.033Z,97973.56
2023-02-06T02:07:52.934Z,97969.28
2023-02-06T02:08:58.399Z,97970.13
2023-02-06T02:10:03.389Z,97971.78
2023-02-06T02:11:07.951Z,97971.81
2023-02-06T02:12:16.436Z,97980.31
2023-02-06T02:13:19.945Z,97980.31
2023-02-06T02:14:25.938Z,97980.38
2023-02-06T02:15:39.225Z,97975.22
2023-02-06T02:16:53.689Z,97975.28
2023-02-06T02:18:03.519Z,97980.44
2023-02-06T02:19:35.896Z,97988.09
2023-02-06T02:21:20.032Z,97971.88
2023-02-06T02:22:45.031Z,97983.88
2023-02-06T02:23:58.348Z,97986.41
2023-02-06T02:25:20.830Z,97990.75
2023-02-06T02:26:57.605Z,97984.00
2023-02-06T02:28:24.593Z,97988.31
2023-02-06T02:30:00.222Z,97990.84
2023-02-06T02:31:51.628Z,97996.81
2023-02-06T02:33:25.509Z,97997.66
2023-02-06T02:34:58.336Z,97996.91
2023-02-06T02:36:08.745Z,97990.13
2023-02-06T02:37:18.693Z,97981.56
2023-02-06T02:38:36.229Z,97984.97
2023-02-06T02:39:47.132Z,97994.28
2023-02-06T02:40:59.995Z,97993.50
2023-02-06T02:42:12.003Z,97987.56
2023-02-06T02:43:25.589Z,97983.25
2023-02-06T02:44:37.390Z,97984.94
2023-02-06T02:45:46.895Z,97980.66
2023-02-06T02:46:56.070Z,97976.44
2023-02-06T02:48:11.542Z,97978.22
2023-02-06T02:49:35.143Z,97979.03
2023-02-06T02:50:40.665Z,97982.41
2023-02-06T02:51:46.492Z,97984.09
2023-02-06T02:52:49.419Z,97978.97
2023-02-06T02:53:56.469Z,97983.22
2023-02-06T02:54:59.488Z,97984.09
2023-02-06T02:56:05.092Z,97979.84
2023-02-06T02:57:14.952Z,97979.75
2023-02-06T02:58:25.744Z,97982.31
2023-02-06T02:59:31.966Z,97978.91
2023-02-06T03:00:43.567Z,97983.94
2023-02-06T03:01:49.696Z,97977.91
2023-02-06T03:02:57.917Z,97983.84
2023-02-06T03:04:08.784Z,97974.53
2023-02-06T03:05:16.168Z,97984.69
2023-02-06T03:06:38.370Z,97978.63
2023-02-06T03:07:47.920Z,97976.94
2023-02-06T03:09:06.249Z,97976.88
2023-02-06T03:10:19.138Z,97970.91
2023-02-06T03:11:23.096Z,97976.81
2023-02-06T03:12:37.374Z,97982.72
2023-02-06T03:13:44.882Z,97980.09
2023-02-06T03:14:57.791Z,97983.50
2023-02-06T03:16:06.156Z,97983.44
2023-02-06T03:17:17.423Z,97981.78
2023-02-06T03:18:24.180Z,97980.03
2023-02-06T03:19:36.274Z,97980.09
2023-02-06T03:20:47.300Z,97980.03
2023-02-06T03:21:52.904Z,97989.28
2023-02-06T03:23:00.814Z,97986.72
2023-02-06T03:24:09.021Z,97997.78
2023-02-06T03:25:19.222Z,97995.28
2023-02-06T03:26:26.244Z,97993.59
2023-02-06T03:27:33.076Z,97988.44
2023-02-06T03:28:40.747Z,98000.28
2023-02-06T03:29:48.146Z,97988.38
2023-02-06T03:30:54.563Z,97985.81
2023-02-06T03:32:04.440Z,97978.09
2023-02-06T03:33:12.084Z,97983.97
2023-02-06T03:34:24.052Z,97983.88
2023-02-06T03:35:32.655Z,97973.69
2023-02-06T03:36:38.751Z,97983.03
2023-02-06T03:37:44.495Z,97980.38
2023-02-06T03:38:52.709Z,97984.66
2023-02-06T03:39:57.943Z,97980.34
2023-02-06T03:41:05.144Z,97987.09
2023-02-06T03:42:11.463Z,97986.19
2023-02-06T03:43:19.117Z,97982.72
2023-02-06T03:44:25.611Z,97982.66
2023-02-06T03:45:34.643Z,97983.38
2023-02-06T03:46:40.892Z,97976.47
2023-02-06T03:47:49.837Z,97972.09
2023-02-06T03:48:58.218Z,97984.78
2023-02-06T03:50:04.243Z,97974.47
2023-02-06T03:51:12.747Z,97975.31
2023-02-06T03:52:23.109Z,97982.13
2023-02-06T03:53:29.181Z,97980.38
2023-02-06T03:54:36.170Z,97986.34
2023-02-06T03:55:40.888Z,97986.34
2023-02-06T03:56:51.199Z,97988.91
2023-02-06T03:57:59.011Z,97983.06
2023-02-06T03:59:04.593Z,97984.97
2023-02-06T04:00:09.223Z,97984.19
2023-02-06T04:01:16.970Z,97980.97
2023-02-06T04:02:23.065Z,97974.94
2023-02-06T04:03:29.932Z,97977.44
2023-02-06T04:04:35.996Z,97975.81
2023-02-06T04:05:42.413Z,97978.41
2023-02-06T04:06:45.876Z,97974.22
2023-02-06T04:07:54.368Z,97975.94
2023-02-06T04:08:59.626Z,97984.47
2023-02-06T04:10:05.287Z,97976.06
2023-02-06T04:11:08.260Z,97977.84
2023-02-06T04:12:13.574Z,97975.31
2023-02-06T04:13:16.317Z,97980.44
2023-02-06T04:14:21.553Z,97973.75
2023-02-06T04:15:24.391Z,97988.19
2023-02-06T04:16:29.480Z,97977.22
2023-02-06T04:17:49.845Z,97983.16
2023-02-06T04:18:57.344Z,97983.97
2023-02-06T04:19:59.954Z,97983.16
2023-02-06T04:21:09.596Z,97978.06
2023-02-06T04:22:17.926Z,97976.56
2023-02-06T04:23:20.914Z,97973.19
2023-02-06T04:24:31.012Z,97974.88
2023-02-06T04:25:33.777Z,97980.84
2023-02-06T04:26:38.643Z,97979.13
2023-02-06T04:27:41.274Z,97977.38
2023-02-06T04:28:46.241Z,97974.88
2023-02-06T04:29:48.962Z,97981.69
2023-02-06T04:30:53.850Z,97981.63
2023-02-06T04:32:02.146Z,97983.28
2023-02-06T04:33:07.121Z,97990.06
2023-02-06T04:34:09.517Z,97990.97
2023-02-06T04:35:14.397Z,97992.63
2023-02-06T04:36:19.954Z,97983.31
2023-02-06T04:37:22.113Z,97989.34
2023-02-06T04:38:27.227Z,97993.53
2023-02-06T04:39:32.410Z,97995.22
2023-02-06T04:40:38.437Z,97987.56
2023-02-06T04:41:41.076Z,97989.28
2023-02-06T04:42:46.123Z,97986.00
2023-02-06T04:43:48.832Z,97991.03
2023-02-06T04:44:54.224Z,97984.19
2023-02-06T04:45:57.133Z,97976.47
2023-02-06T04:47:05.209Z,97980.75
2023-02-06T04:48:07.610Z,97978.28
2023-02-06T04:49:12.933Z,97980.09
2023-02-06T04:50:15.566Z,97975.84
2023-02-06T04:51:20.432Z,97986.16
2023-02-06T04:52:22.766Z,97983.59
2023-02-06T04:53:28.554Z,97980.09
2023-02-06T04:54:33.471Z,97987.75
2023-02-06T04:55:38.820Z,97988.56
2023-02-06T04:56:41.372Z,97988.59
2023-02-06T04:57:47.171Z,97984.28
2023-02-06T04:58:49.843Z,97986.78
2023-02-06T04:59:55.062Z,97985.06
2023-02-06T05:00:58.339Z,97987.63
2023-02-06T05:02:04.646Z,97986.78
2023-02-06T05:03:09.935Z,97980.88
2023-02-06T05:04:12.872Z,97987.69
2023-02-06T05:05:18.527Z,97980.97
2023-02-06T05:06:21.399Z,97986.06
2023-02-06T05:07:27.176Z,97981.84
2023-02-06T05:08:30.054Z,97978.50
2023-02-06T05:09:38.210Z,97976.69
2023-02-06T05:10:41.516Z,97986.91
2023-02-06T05:11:47.354Z,97982.66
2023-02-06T05:12:51.488Z,97972.44
2023-02-06T05:13:57.592Z,97980.97
2023-02-06T05:15:00.626Z,97979.19
2023-02-06T05:16:10.058Z,97978.34
2023-02-06T05:17:13.082Z,97980.91
2023-02-06T05:18:19.415Z,97985.22
2023-02-06T05:19:23.143Z,97981.75
2023-02-06T05:20:30.083Z,97986.09
2023-02-06T05:21:32.882Z,97983.50
2023-02-06T05:22:38.613Z,97984.41
2023-02-06T05:23:41.546Z,97985.25
2023-02-06T05:24:50.097Z,97989.50
2023-02-06T05:25:52.879Z,97985.25
2023-02-06T05:26:59.618Z,97986.09
2023-02-06T05:28:03.014Z,97986.16
2023-02-06T05:29:09.183Z,97982.69
2023-02-06T05:30:13.539Z,97992.03
2023-02-06T05:31:20.480Z,97986.97
2023-02-06T05:32:23.732Z,97992.06
2023-02-06T05:33:30.068Z,97983.50
2023-02-06T05:34:33.095Z,97989.50
2023-02-06T05:35:38.373Z,97991.16
2023-02-06T05:36:41.382Z,97988.53
2023-02-06T05:37:46.283Z,97987.63
2023-02-06T05:38:49.802Z,97998.63
2023-02-06T05:39:59.855Z,97992.69
2023-02-06T05:41:04.029Z,98002.91
2023-02-06T05:42:09.514Z,97982.53
2023-02-06T05:43:12.646Z,97987.69
2023-02-06T05:44:18.433Z,97990.31
2023-02-06T05:45:23.701Z,97992.78
2023-02-06T05:46:26.885Z,97995.34
2023-02-06T05:47:32.397Z,97988.50
2023-02-06T05:48:35.624Z,97994.44
2023-02-06T05:49:40.555Z,97989.34
2023-02-06T05:50:43.520Z,97991.09
2023-02-06T05:51:49.220Z,97983.44
2023-02-06T05:52:51.967Z,97986.84
2023-02-06T05:53:57.682Z,97980.09
2023-02-06T05:55:02.998Z,97976.88
2023-02-06T05:56:09.059Z,97972.44
2023-02-06T05:57:12.379Z,97969.94
2023-02-06T05:58:17.595Z,97978.34
2023-02-06T05:59:20.873Z,97976.63
2023-02-06T06:00:26.244Z,97981.75
2023-02-06T06:01:31.636Z,97983.44
2023-02-06T06:02:34.235Z,97975.84
2023-02-06T06:03:40.007Z,97974.13
2023-02-06T06:04:42.991Z,97969.84
2023-02-06T06:05:48.773Z,97972.31
2023-02-06T06:06:51.926Z,97980.81
2023-02-06T06:07:57.356Z,97980.84
2023-02-06T06:09:01.685Z,97983.44
2023-02-06T06:10:10.058Z,97980.91
2023-02-06T06:11:13.044Z,97985.25
2023-02-06T06:12:18.773Z,97985.13
2023-02-06T06:13:21.759Z,97986.78
2023-02-06T06:14:27.088Z,97993.66
2023-02-06T06:15:32.809Z,97989.38
2023-02-06T06:16:38.059Z,97994.56
2023-02-06T06:17:40.579Z,97993.59
2023-02-06T06:18:45.798Z,97993.59
2023-02-06T06:19:48.274Z,97993.63
2023-02-06T06:20:53.370Z,98007.19
2023-02-06T06:21:57.900Z,98002.88
2023-02-06T06:23:02.880Z,98010.41
2023-02-06T06:24:05.447Z,98012.22
2023-02-06T06:25:12.612Z,98005.38
2023-02-06T06:26:14.600Z,98012.34
2023-02-06T06:27:19.132Z,98015.66
2023-02-06T06:28:23.876Z,98017.44
2023-02-06T06:29:26.603Z,98015.81
2023-02-06T06:30:31.405Z,98026.06
2023-02-06T06:31:33.991Z,98016.53
2023-02-06T06:32:39.507Z,98021.66
2023-02-06T06:33:42.131Z,98008.78
2023-02-06T06:34:46.655Z,98013.81
2023-02-06T06:35:48.591Z,98006.16
2023-02-06T06:36:53.388Z,97997.66
2023-02-06T06:37:55.474Z,98001.00
2023-02-06T06:39:00.131Z,97997.59
2023-02-06T06:40:02.181Z,98000.13
2023-02-06T06:41:09.953Z,97997.66
2023-02-06T06:42:12.083Z,97994.38
2023-02-06T06:43:16.863Z,97994.38
2023-02-06T06:44:18.933Z,98003.72
2023-02-06T06:45:24.114Z,98002.81
2023-02-06T06:46:31.318Z,97998.56
2023-02-06T06:47:33.915Z,98003.66
2023-02-06T06:48:42.827Z,97995.06
2023-02-06T06:49:45.785Z,97997.59
2023-02-06T06:50:55.029Z,97992.50
2023-02-06T06:52:01.149Z,98001.00
2023-02-06T06:53:06.464Z,98003.66
2023-02-06T06:54:08.564Z,97997.72
2023-02-06T06:55:13.668Z,97998.63
2023-02-06T06:56:21.188Z,97996.91
2023-02-06T06:57:23.722Z,97999.50
2023-02-06T06:58:28.897Z,97995.28
2023-02-06T06:59:30.837Z,97995.28
2023-02-06T07:00:36.253Z,97992.72
2023-02-06T07:01:38.974Z,98005.47
2023-02-06T07:02:43.869Z,97999.53
2023-02-06T07:03:48.255Z,98010.56
2023-02-06T07:04:53.473Z,98009.75
2023-02-06T07:05:55.494Z,98012.31
2023-02-06T07:07:01.720Z,98020.91
2023-02-06T07:08:03.732Z,98026.81
2023-02-06T07:09:08.774Z,98032.81
2023-02-06T07:10:11.851Z,98026.00
2023-02-06T07:11:21.505Z,98026.78
2023-02-06T07:12:23.500Z,98020.84
2023-02-06T07:13:28.459Z,98016.53
2023-02-06T07:14:33.246Z,98012.28
2023-02-06T07:15:38.358Z,98017.50
2023-02-06T07:16:43.508Z,98015.81
2023-02-06T07:17:45.700Z,98016.59
2023-02-06T07:18:50.345Z,98017.31
2023-02-06T07:19:52.622Z,98017.38
2023-02-06T07:20:57.511Z,98015.75
2023-02-06T07:21:59.526Z,98021.59
2023-02-06T07:23:04.919Z,98020.84
2023-02-06T07:24:07.549Z,98016.59
2023-02-06T07:25:12.523Z,98022.47
2023-02-06T07:26:20.554Z,98015.69
2023-02-06T07:27:22.568Z,98009.78
2023-02-06T07:28:27.847Z,98020.84
2023-02-06T07:29:32.093Z,98006.28
2023-02-06T07:30:37.478Z,98011.50
2023-02-06T07:31:40.449Z,98005.66
2023-02-06T07:32:46.739Z,98001.38
2023-02-06T07:33:52.357Z,98003.91
2023-02-06T07:34:55.550Z,97999.69
2023-02-06T07:36:03.509Z,98005.66
2023-02-06T07:37:08.533Z,98005.72
2023-02-06T07:38:14.459Z,98007.41
2023-02-06T07:39:19.162Z,97999.75
2023-02-06T07:40:22.596Z,98005.00
2023-02-06T07:41:30.368Z,98005.94
2023-02-06T07:42:34.180Z,98017.06
2023-02-06T07:43:39.276Z,98022.16
2023-02-06T07:44:44.136Z,98019.66
2023-02-06T07:45:48.985Z,98020.50
2023-02-06T07:46:52.984Z,98015.41
2023-02-06T07:47:57.504Z,98013.66
2023-02-06T07:48:59.418Z,98016.22
2023-02-06T07:50:04.376Z,98009.28
2023-02-06T07:51:08.464Z,98013.59
2023-02-06T07:52:13.264Z,98010.94
2023-02-06T07:53:15.313Z,98006.75
2023-02-06T07:54:20.898Z,98010.13
2023-02-06T07:55:26.632Z,98008.38
2023-02-06T07:56:33.775Z,98003.22
2023-02-06T07:57:36.556Z,98001.47
2023-02-06T07:58:41.930Z,98002.44
2023-02-06T07:59:44.131Z,98003.34
2023-02-06T08:00:48.740Z,97997.44
2023-02-06T08:01:50.916Z,98003.34
2023-02-06T08:02:56.788Z,98008.56
2023-02-06T08:04:01.633Z,98010.31
2023-02-06T08:05:03.669Z,98008.56
2023-02-06T08:06:12.244Z,98004.31
2023-02-06T08:07:19.880Z,97994.91
2023-02-06T08:08:21.886Z,98001.53
2023-02-06T08:09:26.441Z,97998.06
2023-02-06T08:10:29.525Z,98004.06
2023-02-06T08:11:36.787Z,97997.91
2023-02-06T08:12:41.486Z,98006.44
2023-02-06T08:13:44.665Z,97997.28
2023-02-06T08:14:50.637Z,98003.34
2023-02-06T08:15:52.683Z,97995.69
2023-02-06T08:16:58.150Z,97998.22
2023-02-06T08:18:02.685Z,97993.88
2023-02-06T08:19:10.901Z,97995.69
2023-02-06T08:20:15.838Z,98000.63
2023-02-06T08:21:23.500Z,98002.44
2023-02-06T08:22:28.014Z,98004.19
2023-02-06T08:23:30.085Z,98008.56
2023-02-06T08:24:35.009Z,98006.81
2023-02-06T08:25:37.543Z,98006.00
2023-02-06T08:26:44.895Z,98009.41
2023-02-06T08:27:46.890Z,98009.09
2023-02-06T08:28:52.765Z,98011.84
2023-02-06T08:29:59.464Z,98011.06
2023-02-06T08:31:01.975Z,98017.97
2023-02-06T08:32:06.906Z,98016.28
2023-02-06T08:33:12.541Z,98007.81
2023-02-06T08:34:15.501Z,98013.66
2023-02-06T08:35:21.561Z,98010.31
2023-02-06T08:36:24.684Z,98006.00
2023-02-06T08:37:29.368Z,98009.41
2023-02-06T08:38:34.631Z,98008.59
2023-02-06T08:39:40.568Z,98006.91
2023-02-06T08:40:46.980Z,98007.75
2023-02-06T08:41:56.278Z,98007.69
2023-02-06T08:43:01.564Z,98006.84
2023-02-06T08:44:05.963Z,98005.88
2023-02-06T08:45:12.240Z,98012.81
2023-02-06T08:46:15.291Z,98010.25
2023-02-06T08:47:21.172Z,98021.38
2023-02-06T08:48:23.795Z,98016.22
2023-02-06T08:50:40.836Z,98018.72
2023-02-06T08:51:43.208Z,98025.56
2023-02-06T08:52:50.172Z,98015.53
2023-02-06T08:53:52.353Z,98016.38
2023-02-06T08:54:57.154Z,98017.25
2023-02-06T08:56:00.946Z,98020.63
2023-02-06T08:57:10.916Z,98012.97
2023-02-06T08:58:15.679Z,98010.38
2023-02-06T08:59:22.570Z,98014.56
2023-02-06T09:00:25.878Z,98010.19
2023-02-06T09:01:33.349Z,98017.91
2023-02-06T09:02:39.472Z,98012.97
2023-02-06T09:03:47.122Z,98015.13
2023-02-06T09:04:53.306Z,98013.56
2023-02-06T09:06:09.371Z,98012.91
2023-02-06T09:07:17.399Z,98007.81
2023-02-06T09:08:22.166Z,98009.53
2023-02-06T09:09:27.265Z,98009.41
2023-02-06T09:10:29.624Z,98018.97
2023-02-06T09:11:34.489Z,98014.75
2023-02-06T09:12:42.408Z,98012.97
2023-02-06T09:13:50.435Z,98013.06
2023-02-06T09:14:54.846Z,98014.63
2023-02-06T09:15:59.568Z,98016.28
2023-02-06T09:17:05.698Z,98019.03
2023-02-06T09:18:10.295Z,98019.84
2023-02-06T09:19:15.164Z,98019.00
2023-02-06T09:20:21.557Z,98022.28
2023-02-06T09:21:28.878Z,98021.38
2023-02-06T09:22:36.220Z,98013.66
2023-02-06T09:23:39.089Z,98018.03
2023-02-06T09:24:44.193Z,98014.63
2023-02-06T09:25:49.877Z,98018.97
2023-02-06T09:27:00.795Z,98013.81
2023-02-06T09:28:10.554Z,98009.59
2023-02-06T09:29:15.632Z,98013.13
2023-02-06T09:30:19.586Z,98011.38
2023-02-06T09:31:24.209Z,97997.81
2023-02-06T09:32:30.629Z,98006.34
2023-02-06T09:33:33.475Z,98006.28
2023-02-06T09:34:38.269Z,97999.38
2023-02-06T09:35:45.312Z,98008.84
2023-02-06T09:36:55.458Z,98001.16
2023-02-06T09:38:01.928Z,98002.94
2023-02-06T09:39:08.591Z,98003.94
2023-02-06T09:40:19.762Z,97996.34
2023-02-06T09:41:29.774Z,97995.34
2023-02-06T09:42:37.688Z,97992.84
2023-02-06T09:43:54.873Z,97979.44
2023-02-06T09:45:08.837Z,97976.97
2023-02-06T09:46:15.090Z,97966.88
2023-02-06T09:47:26.383Z,97963.66
2023-02-06T09:48:34.035Z,97968.81
2023-02-06T09:49:43.391Z,97975.75
2023-02-06T09:50:51.712Z,97964.75
2023-02-06T09:52:23.862Z,97971.78
2023-02-06T09:53:37.357Z,97966.69
2023-02-06T09:54:55.400Z,97970.09
2023-02-06T09:56:11.510Z,97961.75
2023-02-06T09:57:21.156Z,97961.91
2023-02-06T09:58:33.011Z,97952.50
2023-02-06T09:59:48.494Z,97956.94
2023-02-06T10:03:05.701Z,97945.25
2023-02-06T10:04:32.708Z,97950.00
2023-02-06T10:05:44.432Z,97952.97
2023-02-06T10:06:52.392Z,97944.63
2023-02-06T10:08:07.453Z,97951.75
2023-02-06T10:09:16.866Z,97941.47
2023-02-06T10:10:27.337Z,97942.28
2023-02-06T10:11:45.186Z,97947.56
2023-02-06T10:12:56.407Z,97943.25
2023-02-06T10:14:02.632Z,97939.91
2023-02-06T10:15:16.491Z,97938.25
2023-02-06T10:16:37.022Z,97938.44
2023-02-06T10:17:51.702Z,97938.53
2023-02-06T10:18:59.407Z,97932.53
2023-02-06T10:20:08.059Z,97934.28
2023-02-06T10:21:23.065Z,97931.72
2023-02-06T10:24:26.530Z,97936.00
2023-02-06T10:25:35.476Z,97936.75
2023-02-06T10:26:42.796Z,97934.00
2023-02-06T10:27:47.703Z,97930.56
2023-02-06T10:28:55.999Z,97928.94
2023-02-06T10:29:57.999Z,97930.69
2023-02-06T10:31:17.756Z,97923.94
2023-02-06T10:32:43.606Z,97928.28
2023-02-06T10:33:58.535Z,97932.63
2023-02-06T10:35:17.150Z,97924.19
2023-02-06T10:36:39.350Z,97922.50
2023-02-06T10:38:01.969Z,97921.72
2023-02-06T10:39:41.069Z,97919.22
2023-02-06T10:40:52.188Z,97914.22
2023-02-06T10:42:08.177Z,97918.63
2023-02-06T10:43:23.413Z,97913.59
2023-02-06T10:44:33.553Z,97913.34
2023-02-06T10:45:42.702Z,97911.97
2023-02-06T10:46:52.309Z,97909.72
2023-02-06T10:47:58.698Z,97905.63
2023-02-06T10:49:09.345Z,97904.94
2023-02-06T10:50:25.396Z,97905.09
2023-02-06T10:51:34.948Z,97903.44
2023-02-06T10:52:37.566Z,97905.22
2023-02-06T10:53:49.719Z,97898.41
2023-02-06T10:54:58.217Z,97908.69
2023-02-06T10:56:07.209Z,97902.53
2023-02-06T10:57:18.379Z,97903.28
2023-02-06T10:58:24.507Z,97900.06
2023-02-06T10:59:32.827Z,97892.56
2023-02-06T11:00:35.399Z,97899.41
2023-02-06T11:01:43.709Z,97892.63
2023-02-06T11:03:06.846Z,97892.16
2023-02-06T11:04:18.161Z,97894.75
2023-02-06T11:05:25.902Z,97892.19
2023-02-06T11:06:32.658Z,97895.66
2023-02-06T11:07:41.650Z,97904.31
2023-02-06T11:08:48.398Z,97897.44
2023-02-06T11:09:53.129Z,97895.06
2023-02-06T11:10:58.064Z,97890.91
2023-02-06T11:12:00.949Z,97897.00
2023-02-06T11:13:09.170Z,97885.94
2023-02-06T11:14:22.399Z,97883.44
2023-02-06T11:15:35.782Z,97885.13
2023-02-06T11:16:41.846Z,97880.00
2023-02-06T11:17:47.329Z,97873.09
2023-02-06T11:18:53.807Z,97877.44
2023-02-06T11:20:20.336Z,97875.53
2023-02-06T11:21:50.979Z,97873.81
2023-02-06T11:22:55.769Z,97874.63
2023-02-06T11:24:13.000Z,97878.72
2023-02-06T11:25:29.379Z,97878.78
2023-02-06T11:26:33.989Z,97893.28
2023-02-06T11:27:36.710Z,97882.25
2023-02-06T11:28:52.646Z,97877.94
2023-02-06T11:29:57.870Z,97883.84
2023-02-06T11:31:05.774Z,97878.66
2023-02-06T11:32:27.049Z,97874.44
2023-02-06T11:33:39.603Z,97871.84
2023-02-06T11:37:35.820Z,97871.13
2023-02-06T11:38:40.461Z,97859.06
2023-02-06T11:39:42.477Z,97863.28
2023-02-06T11:40:57.558Z,97864.97
2023-02-06T11:42:04.761Z,97861.66
2023-02-06T11:43:28.520Z,97859.06
2023-02-06T11:44:39.704Z,97860.75
2023-02-06T11:45:42.063Z,97859.03
2023-02-06T11:46:46.777Z,97855.59
2023-02-06T11:47:48.986Z,97858.19
2023-02-06T11:49:07.476Z,97855.59
2023-02-06T11:50:25.179Z,97849.59
2023-02-06T11:51:48.891Z,97852.88
2023-02-06T11:53:00.164Z,97849.41
2023-02-06T11:54:04.139Z,97851.25
2023-02-06T11:55:09.305Z,97852.97
2023-02-06T11:56:21.557Z,97859.00
2023-02-06T11:57:28.112Z,97853.88
2023-02-06T11:58:32.410Z,97847.91
2023-02-06T11:59:39.381Z,97856.47
2023-02-06T12:02:31.250Z,97852.88
2023-02-06T12:03:36.843Z,97849.41
2023-02-06T12:04:44.468Z,97844.34
2023-02-06T12:05:47.197Z,97841.72
2023-02-06T12:06:54.950Z,97834.94
2023-02-06T12:08:04.298Z,97837.59
2023-02-06T12:09:15.329Z,97833.34
2023-02-06T12:10:23.505Z,97827.31
2023-02-06T12:11:35.518Z,97830.63
2023-02-06T12:12:45.580Z,97827.22
2023-02-06T12:13:55.911Z,97824.72
2023-02-06T12:15:23.720Z,97823.06
2023-02-06T12:16:30.161Z,97821.47
2023-02-06T12:17:38.752Z,97833.47
2023-02-06T12:20:45.796Z,97833.31
2023-02-06T12:21:53.723Z,97829.03
2023-02-06T12:22:59.444Z,97817.16
2023-02-06T12:24:08.077Z,97819.72
2023-02-06T12:25:26.440Z,97829.13
2023-02-06T12:26:33.232Z,97829.97
2023-02-06T12:27:39.274Z,97845.22
2023-02-06T12:28:52.095Z,97847.84
2023-02-06T12:29:59.974Z,97851.91
2023-02-06T12:31:10.658Z,97845.03
2023-02-06T12:32:20.499Z,97845.91
2023-02-06T12:33:34.140Z,97842.50
2023-02-06T12:34:53.966Z,97846.00
2023-02-06T12:36:03.332Z,97848.41
2023-02-06T12:37:15.184Z,97843.34
2023-02-06T12:38:29.114Z,97841.59
2023-02-06T12:39:35.297Z,97840.66
2023-02-06T12:40:46.508Z,97834.72
2023-02-06T12:42:22.017Z,97837.25
2023-02-06T12:43:26.690Z,97827.91
2023-02-06T12:44:36.614Z,97821.88
2023-02-06T12:45:50.410Z,97824.41
2023-02-06T12:47:08.246Z,97818.41
2023-02-06T12:48:18.835Z,97825.25
2023-02-06T12:49:24.546Z,97815.13
2023-02-06T12:50:34.260Z,97815.22
2023-02-06T12:51:45.692Z,97816.97
2023-02-06T12:52:54.591Z,97815.31
2023-02-06T12:54:03.416Z,97807.66
2023-02-06T12:55:17.830Z,97804.34
2023-02-06T12:56:30.448Z,97794.97
2023-02-06T12:57:35.557Z,97786.44
2023-02-06T12:58:53.502Z,97792.53
2023-02-06T13:00:12.863Z,97779.00
2023-02-06T13:01:34.238Z,97774.00
2023-02-06T13:03:20.730Z,97774.16
2023-02-06T13:04:27.898Z,97769.09
2023-02-06T13:05:37.442Z,97763.94
2023-02-06T13:06:54.215Z,97765.72
2023-02-06T13:08:04.088Z,97764.06
2023-02-06T13:09:10.441Z,97758.06
2023-02-06T13:10:19.711Z,97764.00
2023-02-06T13:11:32.677Z,97767.38
2023-02-06T13:12:35.256Z,97771.66
2023-02-06T13:13:42.286Z,97773.38
2023-02-06T13:14:53.253Z,97776.81
2023-02-06T13:15:57.710Z,97770.72
2023-02-06T13:17:11.853Z,97775.03
2023-02-06T13:18:52.888Z,97769.81
2023-02-06T13:20:07.106Z,97774.09
2023-02-06T13:21:17.796Z,97779.22
2023-02-06T13:22:41.832Z,97786.06
2023-02-06T13:23:54.085Z,97784.34
2023-02-06T13:25:00.715Z,97788.59
2023-02-06T13:26:05.708Z,97786.81
2023-02-06T13:27:15.805Z,97790.19
2023-02-06T13:28:59.535Z,97783.25
2023-02-06T13:30:40.095Z,97778.94
2023-02-06T13:31:44.869Z,97784.81
2023-02-06T13:32:51.340Z,97788.31
2023-02-06T13:33:57.363Z,97790.00
2023-02-06T13:35:16.810Z,97787.44
2023-02-06T13:36:27.679Z,97787.44